sensor_id;sensor_type;location;lat;lon;timestamp;pressure;altitude;pressure_sealevel;temperature;humidity
71996;BME280;59862;47.732;7.346;2023-05-20T00:00:48;98085.97;;;12.67;65.52
71996;BME280;59862;47.732;7.346;2023-05-20T00:03:17;98086.89;;;12.64;65.76
71996;BME280;59862;47.732;7.346;2023-05-20T00:05:46;98089.31;;;12.59;65.88
71996;BME280;59862;47.732;7.346;2023-05-20T00:08:13;98088.11;;;12.51;66.07
71996;BME280;59862;47.732;7.346;2023-05-20T00:10:41;98085.05;;;12.54;66.14
71996;BME280;59862;47.732;7.346;2023-05-20T00:13:08;98087.67;;;12.58;66.36
71996;BME280;59862;47.732;7.346;2023-05-20T00:15:36;98088.23;;;12.64;66.02
71996;BME280;59862;47.732;7.346;2023-05-20T00:18:04;98093.75;;;12.66;66.28
71996;BME280;59862;47.732;7.346;2023-05-20T00:20:32;98092.59;;;12.75;66.25
71996;BME280;59862;47.732;7.346;2023-05-20T00:22:59;98088.72;;;12.74;65.99
71996;BME280;59862;47.732;7.346;2023-05-20T00:25:26;98085.65;;;12.77;66.03
71996;BME280;59862;47.732;7.346;2023-05-20T00:27:56;98089.44;;;12.72;65.97
71996;BME280;59862;47.732;7.346;2023-05-20T00:30:23;98084.77;;;12.59;66.21
71996;BME280;59862;47.732;7.346;2023-05-20T00:32:51;98080.86;;;12.62;66.45
71996;BME280;59862;47.732;7.346;2023-05-20T00:35:18;98079.19;;;12.61;66.25
71996;BME280;59862;47.732;7.346;2023-05-20T00:37:46;98078.95;;;12.56;66.46
71996;BME280;59862;47.732;7.346;2023-05-20T00:40:14;98075.63;;;12.54;66.61
71996;BME280;59862;47.732;7.346;2023-05-20T00:42:41;98072.09;;;12.53;66.74
71996;BME280;59862;47.732;7.346;2023-05-20T00:45:09;98080.09;;;12.57;66.76
71996;BME280;59862;47.732;7.346;2023-05-20T00:47:38;98070.25;;;12.54;67.00
71996;BME280;59862;47.732;7.346;2023-05-20T00:50:07;98066.51;;;12.55;67.02
71996;BME280;59862;47.732;7.346;2023-05-20T00:52:36;98060.86;;;12.50;67.13
71996;BME280;59862;47.732;7.346;2023-05-20T00:55:04;98065.30;;;12.57;67.02
71996;BME280;59862;47.732;7.346;2023-05-20T00:57:32;98056.79;;;12.54;67.23
71996;BME280;59862;47.732;7.346;2023-05-20T00:59:59;98061.26;;;12.57;67.17
71996;BME280;59862;47.732;7.346;2023-05-20T01:02:28;98058.64;;;12.53;67.35
71996;BME280;59862;47.732;7.346;2023-05-20T01:04:56;98061.05;;;12.59;67.36
71996;BME280;59862;47.732;7.346;2023-05-20T01:07:24;98064.08;;;12.60;67.25
71996;BME280;59862;47.732;7.346;2023-05-20T01:09:51;98059.63;;;12.63;67.30
71996;BME280;59862;47.732;7.346;2023-05-20T01:12:34;98055.37;;;12.58;67.40
71996;BME280;59862;47.732;7.346;2023-05-20T01:15:06;98058.81;;;12.52;67.59
71996;BME280;59862;47.732;7.346;2023-05-20T01:17:39;98056.12;;;12.52;67.62
71996;BME280;59862;47.732;7.346;2023-05-20T01:20:09;98058.88;;;12.48;67.65
71996;BME280;59862;47.732;7.346;2023-05-20T01:22:48;98060.48;;;12.53;67.75
71996;BME280;59862;47.732;7.346;2023-05-20T01:25:07;98058.23;;;12.56;67.84
71996;BME280;59862;47.732;7.346;2023-05-20T01:27:35;98060.56;;;12.49;67.78
71996;BME280;59862;47.732;7.346;2023-05-20T01:30:03;98052.99;;;12.48;67.89
71996;BME280;59862;47.732;7.346;2023-05-20T01:32:36;98059.16;;;12.42;68.52
71996;BME280;59862;47.732;7.346;2023-05-20T01:35:02;98051.27;;;12.51;68.10
71996;BME280;59862;47.732;7.346;2023-05-20T01:37:31;98049.98;;;12.58;67.98
71996;BME280;59862;47.732;7.346;2023-05-20T01:40:00;98048.66;;;12.47;68.43
71996;BME280;59862;47.732;7.346;2023-05-20T01:42:28;98044.41;;;12.49;68.12
71996;BME280;59862;47.732;7.346;2023-05-20T01:44:55;98039.29;;;12.54;68.14
71996;BME280;59862;47.732;7.346;2023-05-20T01:47:23;98038.45;;;12.53;67.96
71996;BME280;59862;47.732;7.346;2023-05-20T01:49:51;98036.60;;;12.54;68.25
71996;BME280;59862;47.732;7.346;2023-05-20T01:52:21;98037.88;;;12.58;68.13
71996;BME280;59862;47.732;7.346;2023-05-20T01:54:49;98038.67;;;12.58;68.10
71996;BME280;59862;47.732;7.346;2023-05-20T01:57:21;98039.39;;;12.56;68.16
71996;BME280;59862;47.732;7.346;2023-05-20T01:59:49;98037.88;;;12.58;68.48
71996;BME280;59862;47.732;7.346;2023-05-20T02:02:17;98035.98;;;12.58;68.52
71996;BME280;59862;47.732;7.346;2023-05-20T02:04:45;98031.57;;;12.61;68.24
71996;BME280;59862;47.732;7.346;2023-05-20T02:07:17;98029.80;;;12.58;68.32
71996;BME280;59862;47.732;7.346;2023-05-20T02:09:45;98026.14;;;12.55;68.35
71996;BME280;59862;47.732;7.346;2023-05-20T02:12:13;98025.02;;;12.43;68.53
71996;BME280;59862;47.732;7.346;2023-05-20T02:14:44;98030.33;;;12.47;69.02
71996;BME280;59862;47.732;7.346;2023-05-20T02:17:12;98028.84;;;12.44;68.98
71996;BME280;59862;47.732;7.346;2023-05-20T02:19:47;98027.30;;;12.46;69.13
71996;BME280;59862;47.732;7.346;2023-05-20T02:22:11;98032.94;;;12.51;68.98
71996;BME280;59862;47.732;7.346;2023-05-20T02:24:39;98028.83;;;12.55;69.18
71996;BME280;59862;47.732;7.346;2023-05-20T02:27:08;98030.73;;;12.61;68.79
71996;BME280;59862;47.732;7.346;2023-05-20T02:29:36;98024.52;;;12.71;68.68
71996;BME280;59862;47.732;7.346;2023-05-20T02:32:04;98028.65;;;12.73;68.71
71996;BME280;59862;47.732;7.346;2023-05-20T02:34:31;98028.85;;;12.72;68.55
71996;BME280;59862;47.732;7.346;2023-05-20T02:36:59;98024.05;;;12.67;68.60
71996;BME280;59862;47.732;7.346;2023-05-20T02:39:26;98021.56;;;12.66;68.66
71996;BME280;59862;47.732;7.346;2023-05-20T02:41:56;98018.62;;;12.61;68.44
71996;BME280;59862;47.732;7.346;2023-05-20T02:44:24;98017.91;;;12.63;68.86
71996;BME280;59862;47.732;7.346;2023-05-20T02:46:52;98015.29;;;12.59;68.91
71996;BME280;59862;47.732;7.346;2023-05-20T02:49:19;98008.89;;;12.60;69.08
71996;BME280;59862;47.732;7.346;2023-05-20T02:51:46;98008.77;;;12.57;68.95
71996;BME280;59862;47.732;7.346;2023-05-20T02:54:14;98004.78;;;12.64;68.90
71996;BME280;59862;47.732;7.346;2023-05-20T02:56:41;98006.98;;;12.43;68.61
71996;BME280;59862;47.732;7.346;2023-05-20T02:59:09;98010.06;;;12.51;68.92
71996;BME280;59862;47.732;7.346;2023-05-20T03:01:37;98006.33;;;12.52;68.96
71996;BME280;59862;47.732;7.346;2023-05-20T03:04:06;98003.84;;;12.50;69.20
71996;BME280;59862;47.732;7.346;2023-05-20T03:06:33;98010.49;;;12.54;69.04
71996;BME280;59862;47.732;7.346;2023-05-20T03:09:00;98001.66;;;12.50;68.72
71996;BME280;59862;47.732;7.346;2023-05-20T03:11:28;97997.19;;;12.46;69.06
71996;BME280;59862;47.732;7.346;2023-05-20T03:13:55;97995.97;;;12.49;69.21
71996;BME280;59862;47.732;7.346;2023-05-20T03:16:23;97995.81;;;12.57;68.97
71996;BME280;59862;47.732;7.346;2023-05-20T03:18:50;97996.28;;;12.60;68.92
71996;BME280;59862;47.732;7.346;2023-05-20T03:21:19;97997.88;;;12.55;68.76
71996;BME280;59862;47.732;7.346;2023-05-20T03:23:48;97992.70;;;12.53;68.74
71996;BME280;59862;47.732;7.346;2023-05-20T03:26:16;97991.14;;;12.55;69.00
71996;BME280;59862;47.732;7.346;2023-05-20T03:28:44;97994.22;;;12.52;68.87
71996;BME280;59862;47.732;7.346;2023-05-20T03:31:11;97990.66;;;12.45;68.78
71996;BME280;59862;47.732;7.346;2023-05-20T03:33:39;97987.84;;;12.42;69.05
71996;BME280;59862;47.732;7.346;2023-05-20T03:36:06;97992.09;;;12.41;69.20
71996;BME280;59862;47.732;7.346;2023-05-20T03:38:34;97992.41;;;12.31;69.25
71996;BME280;59862;47.732;7.346;2023-05-20T03:41:01;97988.93;;;12.37;69.39
71996;BME280;59862;47.732;7.346;2023-05-20T03:43:29;97992.47;;;12.38;69.21
71996;BME280;59862;47.732;7.346;2023-05-20T03:45:56;97989.39;;;12.41;69.15
71996;BME280;59862;47.732;7.346;2023-05-20T03:48:23;97986.07;;;12.39;69.01
71996;BME280;59862;47.732;7.346;2023-05-20T03:50:51;97986.70;;;12.41;69.11
71996;BME280;59862;47.732;7.346;2023-05-20T03:53:18;97988.22;;;12.39;69.03
71996;BME280;59862;47.732;7.346;2023-05-20T03:55:46;97986.07;;;12.39;69.17
71996;BME280;59862;47.732;7.346;2023-05-20T03:58:14;97984.65;;;12.43;68.92
71996;BME280;59862;47.732;7.346;2023-05-20T04:00:41;97991.38;;;12.43;68.62
71996;BME280;59862;47.732;7.346;2023-05-20T04:03:09;97988.22;;;12.39;68.63
71996;BME280;59862;47.732;7.346;2023-05-20T04:05:37;97986.75;;;12.37;68.57
71996;BME280;59862;47.732;7.346;2023-05-20T04:08:04;97983.17;;;12.40;68.21
71996;BME280;59862;47.732;7.346;2023-05-20T04:10:32;97986.63;;;12.45;68.44
71996;BME280;59862;47.732;7.346;2023-05-20T04:13:00;97981.37;;;12.47;68.02
71996;BME280;59862;47.732;7.346;2023-05-20T04:15:27;97976.58;;;12.43;68.06
71996;BME280;59862;47.732;7.346;2023-05-20T04:17:55;97973.30;;;12.37;67.95
71996;BME280;59862;47.732;7.346;2023-05-20T04:20:22;97973.96;;;12.39;68.02
71996;BME280;59862;47.732;7.346;2023-05-20T04:22:50;97982.41;;;12.36;68.04
71996;BME280;59862;47.732;7.346;2023-05-20T04:25:19;97983.68;;;12.40;67.87
71996;BME280;59862;47.732;7.346;2023-05-20T04:27:47;97990.66;;;12.45;67.81
71996;BME280;59862;47.732;7.346;2023-05-20T04:30:15;97991.22;;;12.51;67.63
71996;BME280;59862;47.732;7.346;2023-05-20T04:32:43;97990.66;;;12.45;67.54
71996;BME280;59862;47.732;7.346;2023-05-20T04:35:11;97990.38;;;12.50;67.69
71996;BME280;59862;47.732;7.346;2023-05-20T04:37:39;97992.31;;;12.46;67.09
71996;BME280;59862;47.732;7.346;2023-05-20T04:40:08;97991.42;;;12.49;66.96
71996;BME280;59862;47.732;7.346;2023-05-20T04:42:37;97992.03;;;12.62;66.91
71996;BME280;59862;47.732;7.346;2023-05-20T04:45:06;97990.10;;;12.66;67.02
71996;BME280;59862;47.732;7.346;2023-05-20T04:47:34;97992.50;;;12.72;66.82
71996;BME280;59862;47.732;7.346;2023-05-20T04:50:08;97991.66;;;12.82;66.30
71996;BME280;59862;47.732;7.346;2023-05-20T04:52:38;97991.88;;;12.87;66.11
71996;BME280;59862;47.732;7.346;2023-05-20T04:55:08;97989.48;;;12.81;66.13
71996;BME280;59862;47.732;7.346;2023-05-20T04:57:36;97986.41;;;12.74;65.75
71996;BME280;59862;47.732;7.346;2023-05-20T05:00:07;97984.59;;;12.64;66.42
71996;BME280;59862;47.732;7.346;2023-05-20T05:02:36;97994.77;;;12.68;66.23
71996;BME280;59862;47.732;7.346;2023-05-20T05:05:03;97996.87;;;12.73;66.09
71996;BME280;59862;47.732;7.346;2023-05-20T05:07:31;97991.49;;;12.73;66.80
71996;BME280;59862;47.732;7.346;2023-05-20T05:09:58;97983.88;;;12.83;66.23
71996;BME280;59862;47.732;7.346;2023-05-20T05:12:26;97980.09;;;12.88;66.17
71996;BME280;59862;47.732;7.346;2023-05-20T05:14:53;97974.88;;;12.86;65.77
71996;BME280;59862;47.732;7.346;2023-05-20T05:17:23;97977.61;;;12.93;65.73
71996;BME280;59862;47.732;7.346;2023-05-20T05:19:50;97974.92;;;12.93;65.77
71996;BME280;59862;47.732;7.346;2023-05-20T05:22:18;97967.97;;;12.88;66.29
71996;BME280;59862;47.732;7.346;2023-05-20T05:24:45;97964.56;;;12.90;65.89
71996;BME280;59862;47.732;7.346;2023-05-20T05:27:13;97956.61;;;12.92;66.05
71996;BME280;59862;47.732;7.346;2023-05-20T05:29:40;97963.16;;;13.01;66.03
71996;BME280;59862;47.732;7.346;2023-05-20T05:32:08;97961.94;;;13.03;66.05
71996;BME280;59862;47.732;7.346;2023-05-20T05:34:35;97966.89;;;13.10;65.80
71996;BME280;59862;47.732;7.346;2023-05-20T05:37:03;97956.73;;;13.12;65.37
71996;BME280;59862;47.732;7.346;2023-05-20T05:39:31;97957.91;;;13.20;65.75
71996;BME280;59862;47.732;7.346;2023-05-20T05:41:59;97956.81;;;13.38;65.12
71996;BME280;59862;47.732;7.346;2023-05-20T05:44:27;97955.41;;;13.42;65.21
71996;BME280;59862;47.732;7.346;2023-05-20T05:46:54;97952.33;;;13.58;64.52
71996;BME280;59862;47.732;7.346;2023-05-20T05:49:22;97954.66;;;13.75;64.51
71996;BME280;59862;47.732;7.346;2023-05-20T05:51:52;97954.66;;;13.75;64.18
71996;BME280;59862;47.732;7.346;2023-05-20T05:54:20;97950.74;;;13.84;63.81
71996;BME280;59862;47.732;7.346;2023-05-20T05:56:47;97949.17;;;13.79;64.02
71996;BME280;59862;47.732;7.346;2023-05-20T05:59:15;97942.82;;;13.76;64.60
71996;BME280;59862;47.732;7.346;2023-05-20T06:01:43;97944.02;;;13.97;64.29
71996;BME280;59862;47.732;7.346;2023-05-20T06:04:11;97947.75;;;14.09;63.97
71996;BME280;59862;47.732;7.346;2023-05-20T06:06:39;97945.17;;;14.18;63.42
71996;BME280;59862;47.732;7.346;2023-05-20T06:09:07;97946.19;;;14.10;63.60
71996;BME280;59862;47.732;7.346;2023-05-20T06:11:34;97950.05;;;14.25;64.01
71996;BME280;59862;47.732;7.346;2023-05-20T06:14:02;97948.38;;;14.24;63.05
71996;BME280;59862;47.732;7.346;2023-05-20T06:16:29;97954.03;;;14.29;63.03
71996;BME280;59862;47.732;7.346;2023-05-20T06:18:57;97957.45;;;14.40;63.26
71996;BME280;59862;47.732;7.346;2023-05-20T06:21:24;97960.85;;;14.25;63.18
71996;BME280;59862;47.732;7.346;2023-05-20T06:23:52;97960.31;;;14.25;62.80
71996;BME280;59862;47.732;7.346;2023-05-20T06:26:19;97957.23;;;14.35;63.29
71996;BME280;59862;47.732;7.346;2023-05-20T06:28:48;97961.28;;;14.48;62.56
71996;BME280;59862;47.732;7.346;2023-05-20T06:31:15;97957.62;;;14.65;63.18
71996;BME280;59862;47.732;7.346;2023-05-20T06:33:43;97960.31;;;14.71;62.58
71996;BME280;59862;47.732;7.346;2023-05-20T06:36:10;97951.13;;;14.98;62.13
71996;BME280;59862;47.732;7.346;2023-05-20T06:38:37;97946.09;;;15.08;61.82
71996;BME280;59862;47.732;7.346;2023-05-20T06:41:05;97952.78;;;14.93;61.68
71996;BME280;59862;47.732;7.346;2023-05-20T06:43:33;97946.16;;;14.82;62.53
71996;BME280;59862;47.732;7.346;2023-05-20T06:46:00;97948.25;;;14.80;62.60
71996;BME280;59862;47.732;7.346;2023-05-20T06:48:27;97942.20;;;14.91;62.96
71996;BME280;59862;47.732;7.346;2023-05-20T06:50:55;97935.70;;;15.05;62.95
71996;BME280;59862;47.732;7.346;2023-05-20T06:53:22;97938.17;;;15.36;62.28
71996;BME280;59862;47.732;7.346;2023-05-20T06:55:50;97941.07;;;15.41;60.85
71996;BME280;59862;47.732;7.346;2023-05-20T06:58:21;97935.37;;;15.40;60.76
71996;BME280;59862;47.732;7.346;2023-05-20T07:00:49;97934.17;;;15.23;61.32
71996;BME280;59862;47.732;7.346;2023-05-20T07:03:16;97930.56;;;15.19;61.94
71996;BME280;59862;47.732;7.346;2023-05-20T07:05:44;97930.02;;;15.27;62.76
71996;BME280;59862;47.732;7.346;2023-05-20T07:08:11;97937.24;;;15.46;62.80
71996;BME280;59862;47.732;7.346;2023-05-20T07:10:38;97931.83;;;15.46;62.28
71996;BME280;59862;47.732;7.346;2023-05-20T07:13:06;97931.59;;;15.69;62.07
71996;BME280;59862;47.732;7.346;2023-05-20T07:15:33;97928.63;;;15.77;61.52
71996;BME280;59862;47.732;7.346;2023-05-20T07:18:01;97928.45;;;15.88;60.31
71996;BME280;59862;47.732;7.346;2023-05-20T07:20:28;97928.02;;;15.91;60.73
71996;BME280;59862;47.732;7.346;2023-05-20T07:22:56;97929.70;;;16.01;60.48
71996;BME280;59862;47.732;7.346;2023-05-20T07:25:23;97917.98;;;15.98;61.41
71996;BME280;59862;47.732;7.346;2023-05-20T07:27:51;97918.64;;;16.18;60.99
71996;BME280;59862;47.732;7.346;2023-05-20T07:30:18;97911.91;;;16.27;59.53
71996;BME280;59862;47.732;7.346;2023-05-20T07:32:45;97905.39;;;16.10;59.82
71996;BME280;59862;47.732;7.346;2023-05-20T07:35:13;97895.89;;;16.26;59.77
71996;BME280;59862;47.732;7.346;2023-05-20T07:37:40;97893.80;;;16.61;59.84
71996;BME280;59862;47.732;7.346;2023-05-20T07:40:09;97899.98;;;16.68;59.52
71996;BME280;59862;47.732;7.346;2023-05-20T07:42:36;97895.87;;;16.93;58.93
71996;BME280;59862;47.732;7.346;2023-05-20T07:45:04;97896.52;;;16.71;58.53
71996;BME280;59862;47.732;7.346;2023-05-20T07:47:32;97884.70;;;16.40;59.09
71996;BME280;59862;47.732;7.346;2023-05-20T07:50:00;97883.38;;;16.49;59.71
71996;BME280;59862;47.732;7.346;2023-05-20T07:52:27;97880.42;;;16.76;59.79
71996;BME280;59862;47.732;7.346;2023-05-20T07:54:55;97872.59;;;16.95;58.51
71996;BME280;59862;47.732;7.346;2023-05-20T07:57:22;97879.88;;;17.03;58.09
71996;BME280;59862;47.732;7.346;2023-05-20T07:59:49;97889.14;;;17.14;58.40
71996;BME280;59862;47.732;7.346;2023-05-20T08:02:17;97896.34;;;17.29;58.04
71996;BME280;59862;47.732;7.346;2023-05-20T08:04:44;97892.76;;;17.26;57.49
71996;BME280;59862;47.732;7.346;2023-05-20T08:07:12;97877.50;;;17.43;57.40
71996;BME280;59862;47.732;7.346;2023-05-20T08:09:39;97884.41;;;17.57;56.75
71996;BME280;59862;47.732;7.346;2023-05-20T08:12:07;97875.68;;;17.55;57.68
71996;BME280;59862;47.732;7.346;2023-05-20T08:14:34;97874.84;;;17.84;56.75
71996;BME280;59862;47.732;7.346;2023-05-20T08:17:02;97880.34;;;17.98;56.28
71996;BME280;59862;47.732;7.346;2023-05-20T08:19:29;97889.33;;;18.10;55.90
71996;BME280;59862;47.732;7.346;2023-05-20T08:21:57;97896.77;;;18.36;54.88
71996;BME280;59862;47.732;7.346;2023-05-20T08:24:24;97893.48;;;18.57;54.28
71996;BME280;59862;47.732;7.346;2023-05-20T08:26:51;97889.20;;;18.38;54.58
71996;BME280;59862;47.732;7.346;2023-05-20T08:29:19;97892.98;;;18.04;54.64
71996;BME280;59862;47.732;7.346;2023-05-20T08:31:46;97892.47;;;18.05;56.26
71996;BME280;59862;47.732;7.346;2023-05-20T08:34:14;97889.22;;;18.17;55.41
71996;BME280;59862;47.732;7.346;2023-05-20T08:36:41;97892.98;;;18.25;55.97
71996;BME280;59862;47.732;7.346;2023-05-20T08:39:10;97885.20;;;18.52;55.28
71996;BME280;59862;47.732;7.346;2023-05-20T08:41:38;97891.42;;;18.73;54.32
71996;BME280;59862;47.732;7.346;2023-05-20T08:44:08;97895.84;;;18.65;54.02
71996;BME280;59862;47.732;7.346;2023-05-20T08:46:39;97893.14;;;18.33;55.46
71996;BME280;59862;47.732;7.346;2023-05-20T08:49:07;97890.84;;;18.39;55.89
71996;BME280;59862;47.732;7.346;2023-05-20T08:51:36;97886.16;;;18.46;54.97
71996;BME280;59862;47.732;7.346;2023-05-20T08:54:04;97884.03;;;18.59;55.64
71996;BME280;59862;47.732;7.346;2023-05-20T08:56:33;97884.13;;;18.30;54.96
71996;BME280;59862;47.732;7.346;2023-05-20T08:59:03;97881.05;;;18.38;55.12
71996;BME280;59862;47.732;7.346;2023-05-20T09:01:32;97879.83;;;18.10;55.55
71996;BME280;59862;47.732;7.346;2023-05-20T09:04:02;97875.71;;;18.19;55.74
71996;BME280;59862;47.732;7.346;2023-05-20T09:06:40;97875.86;;;18.36;55.92
71996;BME280;59862;47.732;7.346;2023-05-20T09:08:59;97871.75;;;18.13;56.08
71996;BME280;59862;47.732;7.346;2023-05-20T09:11:27;97864.92;;;17.90;56.80
71996;BME280;59862;47.732;7.346;2023-05-20T09:13:56;97871.92;;;17.56;58.04
71996;BME280;59862;47.732;7.346;2023-05-20T09:16:24;97868.45;;;17.40;58.18
71996;BME280;59862;47.732;7.346;2023-05-20T09:18:56;97870.26;;;17.37;58.52
71996;BME280;59862;47.732;7.346;2023-05-20T09:21:27;97869.06;;;17.33;57.94
71996;BME280;59862;47.732;7.346;2023-05-20T09:23:56;97864.55;;;17.36;58.68
71996;BME280;59862;47.732;7.346;2023-05-20T09:26:28;97866.31;;;17.21;58.52
71996;BME280;59862;47.732;7.346;2023-05-20T09:28:57;97876.94;;;17.14;59.65
71996;BME280;59862;47.732;7.346;2023-05-20T09:31:30;97876.66;;;17.13;59.54
71996;BME280;59862;47.732;7.346;2023-05-20T09:34:01;97872.67;;;16.97;59.90
71996;BME280;59862;47.732;7.346;2023-05-20T09:36:30;97881.16;;;17.01;60.35
71996;BME280;59862;47.732;7.346;2023-05-20T09:39:01;97877.56;;;16.89;60.66
71996;BME280;59862;47.732;7.346;2023-05-20T09:41:54;97877.33;;;16.90;61.11
71996;BME280;59862;47.732;7.346;2023-05-20T09:44:01;97872.58;;;16.86;61.07
71996;BME280;59862;47.732;7.346;2023-05-20T09:46:30;97877.17;;;16.85;61.20
71996;BME280;59862;47.732;7.346;2023-05-20T09:48:58;97875.66;;;16.98;60.94
71996;BME280;59862;47.732;7.346;2023-05-20T09:51:27;97870.91;;;17.12;60.61
71996;BME280;59862;47.732;7.346;2023-05-20T09:53:55;97874.23;;;17.05;60.74
71996;BME280;59862;47.732;7.346;2023-05-20T09:56:24;97875.22;;;17.01;62.11
71996;BME280;59862;47.732;7.346;2023-05-20T09:58:53;97877.11;;;16.74;61.70
71996;BME280;59862;47.732;7.346;2023-05-20T10:01:23;97876.21;;;16.89;62.30
71996;BME280;59862;47.732;7.346;2023-05-20T10:03:52;97869.64;;;16.96;61.37
71996;BME280;59862;47.732;7.346;2023-05-20T10:06:49;97876.66;;;16.95;61.69
71996;BME280;59862;47.732;7.346;2023-05-20T10:09:20;97872.82;;;16.84;61.50
71996;BME280;59862;47.732;7.346;2023-05-20T10:11:59;97876.95;;;16.78;61.36
71996;BME280;59862;47.732;7.346;2023-05-20T10:14:53;97868.08;;;16.80;61.51
71996;BME280;59862;47.732;7.346;2023-05-20T10:19:49;97861.00;;;17.35;60.75
71996;BME280;59862;47.732;7.346;2023-05-20T10:22:26;97861.66;;;17.99;59.33
71996;BME280;59862;47.732;7.346;2023-05-20T10:24:59;97866.77;;;18.42;57.69
71996;BME280;59862;47.732;7.346;2023-05-20T10:27:27;97868.07;;;18.63;55.96
71996;BME280;59862;47.732;7.346;2023-05-20T10:29:57;97869.25;;;19.04;55.87
71996;BME280;59862;47.732;7.346;2023-05-20T10:32:26;97856.34;;;19.37;55.23
71996;BME280;59862;47.732;7.346;2023-05-20T10:34:59;97861.44;;;19.76;53.62
71996;BME280;59862;47.732;7.346;2023-05-20T10:37:32;97862.27;;;19.90;53.98
71996;BME280;59862;47.732;7.346;2023-05-20T10:42:39;97857.70;;;19.65;53.55
71996;BME280;59862;47.732;7.346;2023-05-20T10:45:08;97860.75;;;19.68;53.20
71996;BME280;59862;47.732;7.346;2023-05-20T10:47:40;97859.98;;;20.01;53.58
71996;BME280;59862;47.732;7.346;2023-05-20T10:50:06;97863.94;;;20.41;51.35
71996;BME280;59862;47.732;7.346;2023-05-20T10:52:35;97863.27;;;20.34;51.12
71996;BME280;59862;47.732;7.346;2023-05-20T10:55:04;97868.26;;;20.20;51.89
71996;BME280;59862;47.732;7.346;2023-05-20T10:57:33;97868.87;;;19.94;52.91
71996;BME280;59862;47.732;7.346;2023-05-20T11:00:03;97862.16;;;19.29;54.11
71996;BME280;59862;47.732;7.346;2023-05-20T11:02:32;97855.73;;;18.95;54.46
71996;BME280;59862;47.732;7.346;2023-05-20T11:05:00;97861.48;;;18.47;55.54
71996;BME280;59862;47.732;7.346;2023-05-20T11:07:31;97857.88;;;18.24;57.28
71996;BME280;59862;47.732;7.346;2023-05-20T11:09:59;97856.70;;;18.19;56.84
71996;BME280;59862;47.732;7.346;2023-05-20T11:12:27;97852.78;;;18.48;56.76
71996;BME280;59862;47.732;7.346;2023-05-20T11:14:55;97849.70;;;18.93;56.84
71996;BME280;59862;47.732;7.346;2023-05-20T11:17:22;97841.97;;;19.13;54.81
71996;BME280;59862;47.732;7.346;2023-05-20T11:19:50;97835.77;;;19.72;54.89
71996;BME280;59862;47.732;7.346;2023-05-20T11:22:17;97833.87;;;20.36;52.68
71996;BME280;59862;47.732;7.346;2023-05-20T11:24:45;97839.52;;;20.87;50.86
71996;BME280;59862;47.732;7.346;2023-05-20T11:27:13;97831.77;;;21.41;49.08
71996;BME280;59862;47.732;7.346;2023-05-20T11:29:40;97837.27;;;21.73;47.78
71996;BME280;59862;47.732;7.346;2023-05-20T11:32:08;97830.56;;;21.83;47.92
71996;BME280;59862;47.732;7.346;2023-05-20T11:34:36;97827.11;;;22.27;47.56
71996;BME280;59862;47.732;7.346;2023-05-20T11:37:09;97823.53;;;23.07;46.47
71996;BME280;59862;47.732;7.346;2023-05-20T11:39:37;97823.72;;;23.55;44.73
71996;BME280;59862;47.732;7.346;2023-05-20T11:42:05;97820.31;;;23.23;44.77
71996;BME280;59862;47.732;7.346;2023-05-20T11:44:33;97817.14;;;23.51;44.38
71996;BME280;59862;47.732;7.346;2023-05-20T11:47:01;97815.55;;;23.85;43.24
71996;BME280;59862;47.732;7.346;2023-05-20T11:49:29;97804.41;;;23.15;44.40
71996;BME280;59862;47.732;7.346;2023-05-20T11:51:57;97803.09;;;22.71;45.42
71996;BME280;59862;47.732;7.346;2023-05-20T11:54:24;97804.00;;;23.53;44.86
71996;BME280;59862;47.732;7.346;2023-05-20T11:56:53;97796.19;;;23.20;44.35
71996;BME280;59862;47.732;7.346;2023-05-20T11:59:23;97794.50;;;23.01;44.25
71996;BME280;59862;47.732;7.346;2023-05-20T12:01:51;97796.40;;;22.51;45.46
71996;BME280;59862;47.732;7.346;2023-05-20T12:04:18;97796.78;;;22.68;46.27
71996;BME280;59862;47.732;7.346;2023-05-20T12:06:45;97791.45;;;22.93;46.04
71996;BME280;59862;47.732;7.346;2023-05-20T12:09:13;97780.18;;;22.82;45.84
71996;BME280;59862;47.732;7.346;2023-05-20T12:11:41;97784.55;;;22.38;46.47
71996;BME280;59862;47.732;7.346;2023-05-20T12:14:10;97786.55;;;21.82;47.16
71996;BME280;59862;47.732;7.346;2023-05-20T12:16:37;97776.54;;;21.61;47.25
71996;BME280;59862;47.732;7.346;2023-05-20T12:19:05;97772.35;;;21.53;48.13
71996;BME280;59862;47.732;7.346;2023-05-20T12:21:34;97772.06;;;21.50;48.49
71996;BME280;59862;47.732;7.346;2023-05-20T12:24:01;97768.42;;;21.71;46.93
71996;BME280;59862;47.732;7.346;2023-05-20T12:26:31;97764.39;;;20.98;48.31
71996;BME280;59862;47.732;7.346;2023-05-20T12:29:00;97768.67;;;20.51;48.99
71996;BME280;59862;47.732;7.346;2023-05-20T12:31:28;97767.22;;;20.44;49.29
71996;BME280;59862;47.732;7.346;2023-05-20T12:33:55;97758.38;;;20.77;49.54
71996;BME280;59862;47.732;7.346;2023-05-20T12:36:23;97764.19;;;21.29;49.09
71996;BME280;59862;47.732;7.346;2023-05-20T12:38:52;97763.39;;;21.31;47.96
71996;BME280;59862;47.732;7.346;2023-05-20T12:41:19;97769.60;;;21.80;46.83
71996;BME280;59862;47.732;7.346;2023-05-20T12:43:47;97768.28;;;22.58;44.81
71996;BME280;59862;47.732;7.346;2023-05-20T12:46:15;97763.47;;;23.58;44.21
71996;BME280;59862;47.732;7.346;2023-05-20T12:48:42;97764.16;;;23.18;43.40
71996;BME280;59862;47.732;7.346;2023-05-20T12:51:10;97775.00;;;22.88;43.90
71996;BME280;59862;47.732;7.346;2023-05-20T12:53:37;97769.59;;;22.51;45.26
71996;BME280;59862;47.732;7.346;2023-05-20T12:56:05;97774.19;;;22.85;44.74
71996;BME280;59862;47.732;7.346;2023-05-20T12:58:32;97772.38;;;22.58;45.52
71996;BME280;59862;47.732;7.346;2023-05-20T13:01:00;97764.35;;;22.44;46.50
71996;BME280;59862;47.732;7.346;2023-05-20T13:03:27;97770.72;;;22.57;45.50
71996;BME280;59862;47.732;7.346;2023-05-20T13:05:54;97766.55;;;22.06;46.39
71996;BME280;59862;47.732;7.346;2023-05-20T13:08:22;97764.41;;;21.78;46.33
71996;BME280;59862;47.732;7.346;2023-05-20T13:10:49;97755.80;;;22.33;46.29